Time;durP1;ratioP1;P1;durP2;ratioP2;P2;SDS_P1;SDS_P2;PMS_P1;PMS_P2;Temp;Humidity;BMP_temperature;BMP_pressure;BME280_temperature;BME280_humidity;BME280_pressure;Samples;Min_cycle;Max_cycle;Signal;HPM_P1;HPM_P2
2022/03/24 00:02:02;;;;;;;10.13;9.13;;;;;;;6.07;77.44;99531.56;10446571;28;20523;-80
2022/03/24 00:07:06;;;;;;;9.95;8.73;;;;;;;5.98;78.91;99537.50;10449904;28;20049;-80
2022/03/24 00:12:11;;;;;;;10.88;9.23;;;;;;;5.88;82.48;99533.75;10450070;28;20136;-80
2022/03/24 00:17:14;;;;;;;12.55;9.10;;;;;;;5.75;87.49;99528.38;10457448;28;20055;-78
2022/03/24 00:22:17;;;;;;;10.23;9.15;;;;;;;5.69;89.05;99524.28;10485832;28;20077;-80
2022/03/24 00:27:21;;;;;;;10.98;9.43;;;;;;;5.62;92.34;99533.66;10449347;28;20047;-80
2022/03/24 00:32:24;;;;;;;10.38;9.30;;;;;;;5.51;94.12;99529.91;10465732;28;20127;-79
2022/03/24 00:37:27;;;;;;;11.20;9.30;;;;;;;5.43;94.85;99534.91;10449128;28;20052;-80
2022/03/24 00:42:32;;;;;;;10.05;9.05;;;;;;;5.37;94.50;99524.59;10451575;28;20140;-80
2022/03/24 00:47:35;;;;;;;10.02;8.98;;;;;;;5.28;97.87;99523.41;10447627;28;20119;-78
2022/03/24 00:52:43;;;;;;;9.18;8.27;;;;;;;5.17;97.29;99517.91;10441937;28;20057;-79
2022/03/24 00:57:49;;;;;;;9.73;8.40;;;;;;;5.08;100.00;99514.84;10448343;28;20052;-80
2022/03/24 01:02:54;;;;;;;9.98;8.98;;;;;;;4.98;100.00;99507.56;10458229;28;20053;-76
2022/03/24 01:07:57;;;;;;;10.93;9.52;;;;;;;4.89;100.00;99509.00;10451945;28;20131;-80
2022/03/24 01:13:03;;;;;;;9.30;8.40;;;;;;;4.82;100.00;99505.84;10471750;28;20083;-80
2022/03/24 01:18:07;;;;;;;9.63;8.73;;;;;;;4.76;100.00;99500.91;10458060;28;20073;-77
2022/03/24 01:23:11;;;;;;;10.20;9.02;;;;;;;4.69;100.00;99494.25;10453641;28;20068;-79
2022/03/24 01:28:15;;;;;;;10.90;9.30;;;;;;;4.65;100.00;99492.69;10472022;28;20076;-77
2022/03/24 01:33:19;;;;;;;11.05;9.13;;;;;;;4.58;100.00;99484.25;10503871;28;20075;-77
2022/03/24 01:38:23;;;;;;;10.13;9.00;;;;;;;4.49;100.00;99480.34;10479797;28;20056;-80
2022/03/24 01:43:27;;;;;;;11.93;9.10;;;;;;;4.40;100.00;99484.44;10447161;28;20398;-79
2022/03/24 01:48:31;;;;;;;10.50;9.30;;;;;;;4.38;100.00;99477.50;10439877;28;20354;-78
2022/03/24 01:53:34;;;;;;;11.90;8.98;;;;;;;4.35;100.00;99478.53;10441516;28;20045;-79
2022/03/24 01:58:43;;;;;;;10.65;9.63;;;;;;;4.28;100.00;99478.06;10436679;28;20061;-77
2022/03/24 02:03:48;;;;;;;11.30;9.90;;;;;;;4.18;100.00;99466.22;10446435;28;20045;-77
2022/03/24 02:08:51;;;;;;;12.05;9.52;;;;;;;4.08;100.00;99470.41;10446699;28;20053;-78
2022/03/24 02:13:56;;;;;;;10.40;9.18;;;;;;;4.03;100.00;99472.53;10440932;28;20068;-78
2022/03/24 02:18:59;;;;;;;10.13;9.10;;;;;;;3.95;100.00;99471.16;10441077;28;20087;-79
2022/03/24 02:24:03;;;;;;;9.98;8.98;;;;;;;3.88;100.00;99464.50;10450637;28;20099;-78
2022/03/24 02:29:08;;;;;;;9.93;8.93;;;;;;;3.80;100.00;99462.28;10446940;28;20054;-80
2022/03/24 02:39:38;;;;;;;11.27;9.68;;;;;;;3.67;100.00;99461.31;10460062;28;20040;-78
2022/03/24 02:44:41;;;;;;;10.20;9.20;;;;;;;3.59;100.00;99458.25;10444665;28;20425;-79
2022/03/24 02:49:48;;;;;;;12.05;9.38;;;;;;;3.51;100.00;99456.03;10443638;28;20139;-78
2022/03/24 02:54:53;;;;;;;10.90;9.63;;;;;;;3.40;100.00;99467.34;10447776;28;20053;-82
2022/03/24 02:59:56;;;;;;;14.38;9.88;;;;;;;3.22;100.00;99470.13;10453850;28;20071;-79
2022/03/24 03:04:59;;;;;;;10.70;9.60;;;;;;;3.05;100.00;99468.44;10443710;28;20040;-79
2022/03/24 03:10:04;;;;;;;10.77;9.73;;;;;;;2.96;100.00;99460.09;10461747;28;20381;-82
2022/03/24 03:15:07;;;;;;;11.13;10.02;;;;;;;2.84;100.00;99461.66;10501036;28;20041;-81
2022/03/24 03:20:13;;;;;;;12.07;10.95;;;;;;;2.67;100.00;99460.78;10476820;28;20052;-79
2022/03/24 03:25:21;;;;;;;11.73;10.52;;;;;;;2.54;100.00;99459.75;10460913;28;20067;-78
2022/03/24 03:30:24;;;;;;;12.95;10.70;;;;;;;2.39;100.00;99465.00;10454681;28;20053;-80
2022/03/24 03:35:29;;;;;;;13.45;10.93;;;;;;;2.30;100.00;99463.69;10450637;28;20406;-81
2022/03/24 03:40:33;;;;;;;13.20;11.88;;;;;;;2.03;100.00;99476.66;10451012;28;20055;-78
2022/03/24 03:51:45;;;;;;;14.30;12.10;;;;;;;1.92;100.00;99484.34;10496372;28;20057;-83
2022/03/24 03:56:49;;;;;;;14.55;13.05;;;;;;;1.77;100.00;99486.84;10488598;28;20037;-83
2022/03/24 04:01:53;;;;;;;14.40;12.90;;;;;;;1.70;100.00;99488.09;10492713;28;20037;-78
2022/03/24 04:06:56;;;;;;;13.32;11.90;;;;;;;1.66;100.00;99486.53;10482362;28;20037;-78
2022/03/24 04:12:00;;;;;;;14.50;11.65;;;;;;;1.63;100.00;99486.69;10447289;28;20480;-78
2022/03/24 04:17:03;;;;;;;13.40;12.05;;;;;;;1.59;100.00;99493.09;10434167;28;20056;-79
2022/03/24 04:22:06;;;;;;;12.88;11.57;;;;;;;1.53;100.00;99499.56;10437851;28;20056;-79
2022/03/24 04:27:12;;;;;;;13.20;11.80;;;;;;;1.48;100.00;99486.50;10454725;28;20057;-79
2022/03/24 04:32:15;;;;;;;13.35;11.20;;;;;;;1.44;100.00;99490.28;10438675;28;20147;-79
2022/03/24 04:37:18;;;;;;;12.07;10.88;;;;;;;1.38;100.00;99501.19;10442215;28;20041;-78
2022/03/24 04:42:23;;;;;;;13.25;12.00;;;;;;;1.30;100.00;99498.06;10457360;28;20041;-78
2022/03/24 04:47:27;;;;;;;13.52;11.80;;;;;;;1.23;100.00;99500.16;10442366;28;20131;-78
2022/03/24 04:52:30;;;;;;;12.55;11.25;;;;;;;1.17;100.00;99493.34;10459028;28;20063;-78
2022/03/24 04:57:35;;;;;;;13.38;11.95;;;;;;;1.13;100.00;99488.28;10439700;28;20107;-78
2022/03/24 05:02:39;;;;;;;16.48;12.05;;;;;;;1.08;100.00;99491.16;10453056;28;20077;-79
2022/03/24 05:07:42;;;;;;;13.40;12.20;;;;;;;1.04;100.00;99501.06;10437604;28;20083;-78
2022/03/24 05:12:46;;;;;;;17.15;13.90;;;;;;;1.01;100.00;99492.38;10440047;28;20144;-79
2022/03/24 05:17:49;;;;;;;16.17;14.63;;;;;;;0.99;100.00;99494.25;10448810;28;20049;-78
2022/03/24 05:22:52;;;;;;;18.13;14.90;;;;;;;1.00;100.00;99501.28;10447547;28;20596;-78
2022/03/24 05:27:57;;;;;;;16.40;14.50;;;;;;;0.98;100.00;99504.00;10447530;28;20457;-77
2022/03/24 05:33:00;;;;;;;15.68;14.02;;;;;;;0.98;100.00;99519.09;10460569;28;20521;-80
2022/03/24 05:38:04;;;;;;;15.18;13.30;;;;;;;0.99;100.00;99510.19;10445745;28;20049;-78
2022/03/24 05:43:08;;;;;;;13.65;12.35;;;;;;;1.01;100.00;99513.59;10463465;28;20124;-79
2022/03/24 05:48:12;;;;;;;13.70;12.30;;;;;;;1.01;100.00;99513.59;10447651;28;20293;-78
2022/03/24 05:53:28;;;;;;;13.82;12.25;;;;;;;1.03;100.00;99522.34;10471875;28;20060;-79
2022/03/24 05:58:32;;;;;;;13.40;12.00;;;;;;;1.04;100.00;99518.78;10454656;28;20136;-80
2022/03/24 06:03:36;;;;;;;13.25;11.65;;;;;;;1.05;100.00;99529.34;10464530;28;20087;-79
2022/03/24 06:08:41;;;;;;;13.07;10.55;;;;;;;1.08;100.00;99523.84;10493922;28;20056;-78
2022/03/24 06:13:46;;;;;;;12.13;10.93;;;;;;;1.11;100.00;99517.56;10443476;28;20079;-78
2022/03/24 06:18:49;;;;;;;12.18;10.95;;;;;;;1.11;100.00;99533.47;10456581;28;20049;-81
2022/03/24 06:23:53;;;;;;;12.02;10.73;;;;;;;1.17;100.00;99530.53;10445896;28;20131;-79
2022/03/24 06:28:58;;;;;;;12.55;11.23;;;;;;;1.22;100.00;99532.94;10450742;28;20627;-80
2022/03/24 06:34:00;;;;;;;12.50;10.88;;;;;;;1.28;100.00;99530.00;10466766;28;20472;-80
2022/03/24 06:39:04;;;;;;;11.55;10.40;;;;;;;1.37;100.00;99534.00;10456767;28;20135;-79
2022/03/24 06:44:08;;;;;;;11.43;10.23;;;;;;;1.46;100.00;99541.53;10456237;28;20056;-81
2022/03/24 06:49:11;;;;;;;13.35;11.13;;;;;;;1.55;100.00;99540.19;10450114;28;20095;-79
2022/03/24 06:54:14;;;;;;;12.23;11.02;;;;;;;1.65;100.00;99546.75;10459641;28;20104;-79
2022/03/24 06:59:18;;;;;;;17.23;11.57;;;;;;;1.76;100.00;99543.56;10482916;28;20044;-78
2022/03/24 07:04:21;;;;;;;14.32;11.02;;;;;;;1.88;100.00;99542.09;10469877;28;20052;-80
2022/03/24 07:09:24;;;;;;;12.52;10.80;;;;;;;1.99;100.00;99542.41;10441661;28;20534;-78
2022/03/24 07:14:28;;;;;;;11.75;10.10;;;;;;;2.14;100.00;99548.72;10456184;28;20080;-78
2022/03/24 07:19:31;;;;;;;12.40;10.77;;;;;;;2.29;100.00;99543.56;10444444;28;20488;-82
2022/03/24 07:24:34;;;;;;;12.20;11.10;;;;;;;2.42;100.00;99546.41;10442239;28;20127;-78
2022/03/24 07:29:39;;;;;;;13.23;10.52;;;;;;;2.64;100.00;99551.44;10442670;28;20472;-79
2022/03/24 07:34:42;;;;;;;14.30;10.25;;;;;;;2.81;100.00;99557.63;10440567;28;20045;-79
2022/03/24 07:39:45;;;;;;;11.43;10.35;;;;;;;2.99;100.00;99556.66;10466486;28;20063;-80
2022/03/24 07:44:49;;;;;;;12.00;10.18;;;;;;;3.16;100.00;99560.16;10458169;28;20048;-79
2022/03/24 07:49:52;;;;;;;11.38;10.10;;;;;;;3.34;100.00;99558.25;10436710;28;20148;-80
2022/03/24 07:55:06;;;;;;;10.52;9.52;;;;;;;3.50;100.00;99552.91;10449277;28;20049;-79
2022/03/24 08:00:12;;;;;;;12.35;10.23;;;;;;;3.73;100.00;99548.03;10460033;28;20128;-79
2022/03/24 08:05:16;;;;;;;12.73;10.40;;;;;;;3.97;100.00;99545.75;10445865;28;20076;-78
2022/03/24 08:10:19;;;;;;;12.93;10.55;;;;;;;4.18;100.00;99546.25;10445808;28;20914;-79
2022/03/24 08:15:23;;;;;;;11.27;9.82;;;;;;;4.47;100.00;99546.28;10445745;28;20049;-79
2022/03/24 08:20:26;;;;;;;11.23;10.15;;;;;;;4.72;100.00;99550.13;10446828;28;20057;-79
2022/03/24 08:25:29;;;;;;;12.13;10.10;;;;;;;4.95;100.00;99545.97;10463040;28;20031;-78
2022/03/24 08:30:34;;;;;;;11.23;10.07;;;;;;;5.23;100.00;99554.91;10444696;28;20040;-79
2022/03/24 08:35:45;;;;;;;11.98;10.73;;;;;;;5.51;100.00;99548.59;10462458;28;20106;-79
2022/03/24 08:40:49;;;;;;;;;;;;;;;5.77;100.00;99556.72;10459818;28;20120;-79
2022/03/24 08:45:56;;;;;;;11.40;10.20;;;;;;;5.96;100.00;99560.81;10462108;28;19920;-82
2022/03/24 08:50:59;;;;;;;11.98;10.75;;;;;;;6.23;100.00;99559.94;10444506;28;20079;-79
2022/03/24 08:56:04;;;;;;;11.50;10.13;;;;;;;6.54;100.00;99553.31;10465410;28;20069;-82
2022/03/24 09:01:10;;;;;;;12.50;10.50;;;;;;;6.83;100.00;99546.88;10489530;28;20049;-79
2022/03/24 09:06:16;;;;;;;12.27;9.77;;;;;;;7.19;100.00;99558.59;10443812;28;20144;-80
2022/03/24 09:11:20;;;;;;;13.43;10.85;;;;;;;7.39;100.00;99549.94;10446519;28;20052;-79
2022/03/24 09:16:28;;;;;;;14.95;10.40;;;;;;;7.70;100.00;99544.94;10450632;28;20513;-78
2022/03/24 09:21:31;;;;;;;11.30;10.02;;;;;;;8.04;100.00;99548.75;10449296;28;20075;-78
2022/03/24 09:26:37;;;;;;;15.77;10.45;;;;;;;8.33;100.00;99546.50;10448064;28;20041;-78
2022/03/24 09:31:43;;;;;;;19.02;10.98;;;;;;;8.79;100.00;99542.06;10456616;28;20044;-78
2022/03/24 09:36:46;;;;;;;12.10;10.23;;;;;;;9.00;100.00;99555.63;10461179;28;20056;-78
2022/03/24 09:41:49;;;;;;;14.57;10.57;;;;;;;9.33;100.00;99553.00;10445561;28;20072;-79
2022/03/24 09:46:55;;;;;;;11.90;9.95;;;;;;;9.54;96.23;99540.47;10438274;28;20131;-78
2022/03/24 09:52:00;;;;;;;13.63;10.70;;;;;;;9.84;94.59;99541.59;10459836;28;20041;-79
2022/03/24 09:57:05;;;;;;;14.05;9.82;;;;;;;10.17;93.56;99545.09;10465422;28;20481;-78
2022/03/24 10:02:10;;;;;;;12.60;9.80;;;;;;;10.57;95.04;99545.38;10462126;28;20053;-79
2022/03/24 10:07:14;;;;;;;11.82;10.32;;;;;;;10.79;89.93;99536.25;10462131;28;20037;-79
2022/03/24 10:12:21;;;;;;;12.88;10.13;;;;;;;10.96;95.24;99548.25;10442729;28;20055;-80
2022/03/24 10:17:26;;;;;;;12.43;10.00;;;;;;;11.31;91.03;99529.88;10459740;28;20532;-79
2022/03/24 10:22:29;;;;;;;14.23;10.07;;;;;;;11.60;88.16;99534.50;10447986;28;20080;-80
2022/03/24 10:27:33;;;;;;;11.63;10.18;;;;;;;11.86;82.74;99532.09;10447411;28;20490;-79
2022/03/24 10:32:37;;;;;;;11.80;9.43;;;;;;;12.14;66.65;99524.16;10443756;28;20053;-80
2022/03/24 10:37:49;;;;;;;10.57;9.52;;;;;;;12.43;60.71;99525.91;10446221;28;20149;-79
2022/03/24 10:42:55;;;;;;;12.90;9.35;;;;;;;12.69;56.81;99533.38;10445746;28;20127;-81
2022/03/24 10:48:02;;;;;;;10.65;9.57;;;;;;;12.84;57.97;99522.94;10445741;28;20049;-80
2022/03/24 10:53:07;;;;;;;10.75;9.40;;;;;;;13.05;58.35;99518.13;10440952;28;20041;-79
2022/03/24 10:58:14;;;;;;;12.27;9.98;;;;;;;13.17;56.70;99515.25;10442931;28;20045;-80
2022/03/24 11:03:20;;;;;;;12.18;9.52;;;;;;;13.34;57.72;99505.47;10448465;28;20285;-79
2022/03/24 11:08:23;;;;;;;10.98;9.48;;;;;;;13.57;54.85;99505.91;10444533;28;20421;-80
2022/03/24 11:13:30;;;;;;;10.88;9.77;;;;;;;13.61;56.44;99504.59;10464489;28;20127;-79
2022/03/24 11:18:35;;;;;;;11.25;9.25;;;;;;;13.73;55.25;99507.91;10457935;28;20519;-78
2022/03/24 11:23:40;;;;;;;10.73;9.23;;;;;;;13.89;55.49;99498.22;10432274;28;20402;-78
2022/03/24 11:28:46;;;;;;;10.60;9.50;;;;;;;14.03;54.84;99500.38;10428136;28;20055;-81
2022/03/24 11:33:52;;;;;;;11.43;9.45;;;;;;;14.13;55.04;99492.16;10432752;28;20049;-81
2022/03/24 11:38:58;;;;;;;11.68;9.57;;;;;;;14.21;54.35;99484.09;10432219;28;20054;-81
2022/03/24 11:44:06;;;;;;;14.55;9.80;;;;;;;14.41;55.02;99476.56;10430759;28;20216;-81
2022/03/24 11:49:19;;;;;;;11.32;9.52;;;;;;;14.58;50.75;99472.09;10473104;28;20054;-78
2022/03/24 11:54:28;;;;;;;13.25;10.23;;;;;;;14.71;51.54;99473.53;10437446;28;20413;-80
2022/03/24 11:59:31;;;;;;;10.52;9.23;;;;;;;14.88;51.98;99459.06;10436964;28;20072;-78
2022/03/24 12:04:46;;;;;;;14.98;10.18;;;;;;;15.01;50.11;99455.03;10433159;28;20064;-79
2022/03/24 12:10:01;;;;;;;11.50;10.07;;;;;;;15.12;48.88;99459.28;10450420;28;20053;-79
2022/03/24 12:15:10;;;;;;;12.50;9.38;;;;;;;15.33;49.17;99464.28;10426934;28;20076;-78
2022/03/24 12:20:22;;;;;;;12.48;9.55;;;;;;;15.40;48.55;99451.75;10427172;28;20061;-78
2022/03/24 12:25:31;;;;;;;11.82;9.77;;;;;;;15.30;47.05;99445.59;10415559;28;20079;-81
2022/03/24 12:30:54;;;;;;;11.45;8.80;;;;;;;15.62;47.73;99441.25;10421867;28;20046;-80
2022/03/24 12:36:00;;;;;;;10.70;9.32;;;;;;;15.89;47.98;99445.50;10406501;28;20056;-82
2022/03/24 12:41:17;;;;;;;10.57;7.60;;;;;;;16.11;42.55;99437.66;10428221;28;20052;-83
2022/03/24 12:46:24;;;;;;;9.30;8.18;;;;;;;16.30;44.88;99431.84;10422528;28;20059;-82
2022/03/24 12:51:30;;;;;;;13.10;9.43;;;;;;;16.17;43.26;99426.97;10424387;28;20048;-84
2022/03/24 12:56:34;;;;;;;13.30;8.32;;;;;;;16.46;44.00;99419.22;10416932;28;20076;-82
2022/03/24 13:01:41;;;;;;;12.55;8.40;;;;;;;16.61;42.43;99414.78;10432563;28;20096;-82
2022/03/24 13:06:47;;;;;;;8.95;8.10;;;;;;;16.71;42.68;99410.97;10466447;28;20044;-81
2022/03/24 13:11:59;;;;;;;9.40;8.48;;;;;;;17.06;40.63;99412.34;10453973;28;20025;-81
2022/03/24 13:17:07;;;;;;;10.93;8.25;;;;;;;17.19;41.37;99409.06;10469343;28;20063;-82
2022/03/24 13:22:19;;;;;;;11.45;8.40;;;;;;;17.27;40.15;99399.13;10465083;28;20143;-82
2022/03/24 13:27:22;;;;;;;;;;;;;;;17.18;37.94;99401.03;10453339;28;20041;-82
2022/03/24 13:32:28;;;;;;;11.25;7.80;;;;;;;17.45;37.40;99399.69;10457961;28;19929;-81
2022/03/24 13:37:37;;;;;;;11.18;8.30;;;;;;;17.67;39.05;99381.63;10456331;28;20067;-80
2022/03/24 13:42:42;;;;;;;8.57;7.72;;;;;;;18.02;39.47;99384.72;10445724;28;20095;-81
2022/03/24 13:47:49;;;;;;;8.75;7.40;;;;;;;18.09;37.20;99378.53;10449418;28;20055;-80
2022/03/24 13:52:55;;;;;;;9.68;7.00;;;;;;;18.43;36.78;99379.84;10468297;28;20473;-81
2022/03/24 13:58:01;;;;;;;8.63;7.60;;;;;;;18.31;35.15;99376.75;10463668;28;20046;-83
2022/03/24 14:03:11;;;;;;;8.60;7.80;;;;;;;18.08;35.62;99385.03;10450651;28;20051;-82
2022/03/24 14:08:18;;;;;;;8.38;7.57;;;;;;;18.57;35.54;99379.00;10463044;28;20049;-81
2022/03/24 14:13:25;;;;;;;9.27;7.47;;;;;;;18.75;35.72;99367.69;10460061;28;20055;-80
2022/03/24 14:18:29;;;;;;;9.02;6.85;;;;;;;18.79;33.21;99371.69;10459918;28;20429;-79
2022/03/24 14:23:35;;;;;;;9.20;7.82;;;;;;;18.53;33.41;99371.34;10442150;28;20047;-80
2022/03/24 14:28:42;;;;;;;8.50;7.70;;;;;;;18.80;35.37;99361.66;10440138;28;20421;-79
2022/03/24 14:33:46;;;;;;;11.05;7.68;;;;;;;18.98;34.75;99357.66;10440638;28;20506;-81
2022/03/24 14:39:15;;;;;;;11.50;7.82;;;;;;;18.97;33.24;99354.09;10443475;28;20055;-81
2022/03/24 14:44:20;;;;;;;11.65;8.13;;;;;;;18.94;34.36;99349.00;10501171;28;20060;-80
2022/03/24 14:49:24;;;;;;;9.27;8.05;;;;;;;18.84;34.94;99345.72;10441291;28;20076;-81
2022/03/24 14:54:30;;;;;;;8.85;8.02;;;;;;;19.06;34.03;99346.59;10444244;28;20083;-80
2022/03/24 14:59:34;;;;;;;9.20;8.07;;;;;;;19.26;34.16;99344.09;10442499;28;20421;-80
2022/03/24 15:04:37;;;;;;;11.20;7.82;;;;;;;19.30;33.27;99344.53;10449276;28;20111;-78
2022/03/24 15:09:41;;;;;;;11.00;7.50;;;;;;;19.42;33.08;99339.41;10438028;28;20075;-81
2022/03/24 15:20:07;;;;;;;8.77;7.07;;;;;;;19.38;33.82;99331.59;10461067;28;20072;-81
2022/03/24 15:25:12;;;;;;;10.43;7.20;;;;;;;19.30;33.67;99326.28;10436697;28;20470;-82
2022/03/24 15:30:15;;;;;;;8.80;7.15;;;;;;;19.28;33.44;99328.34;10450678;28;20057;-80
2022/03/24 15:35:18;;;;;;;12.02;6.93;;;;;;;18.97;33.03;99321.31;10446732;28;20068;-81
2022/03/24 15:40:23;;;;;;;9.02;6.78;;;;;;;19.11;32.83;99324.19;10442885;28;20047;-80
2022/03/24 15:45:26;;;;;;;9.85;7.30;;;;;;;19.15;33.41;99323.63;10449963;28;20049;-79
2022/03/24 15:50:29;;;;;;;13.98;7.47;;;;;;;19.15;34.17;99320.03;10450670;28;21341;-82
2022/03/24 15:55:34;;;;;;;8.70;7.55;;;;;;;18.88;33.77;99314.25;10444776;28;20113;-82
2022/03/24 16:00:43;;;;;;;11.45;7.80;;;;;;;18.66;34.09;99316.94;10446081;28;20045;-80
2022/03/24 16:05:46;;;;;;;9.48;7.57;;;;;;;18.53;34.21;99320.38;10193965;29;20853;-53
2022/03/24 16:10:50;;;;;;;11.65;8.00;;;;;;;18.54;35.02;99319.34;10232293;28;20040;-56
2022/03/24 16:15:54;;;;;;;11.30;8.40;;;;;;;18.34;36.07;99313.63;10240765;28;20067;-54
2022/03/24 16:20:57;;;;;;;12.43;8.55;;;;;;;18.21;36.46;99313.44;10254384;28;20039;-53
2022/03/24 16:26:02;;;;;;;12.13;8.43;;;;;;;18.10;35.85;99318.34;10247182;28;20051;-52
2022/03/24 16:31:05;;;;;;;11.57;8.40;;;;;;;17.87;36.64;99321.97;10251010;28;20453;-56
2022/03/24 16:36:09;;;;;;;9.13;7.90;;;;;;;17.54;37.55;99322.31;10233403;28;20050;-55
2022/03/24 16:41:14;;;;;;;10.43;8.50;;;;;;;17.20;38.68;99331.78;10248384;28;20487;-52
2022/03/24 16:46:17;;;;;;;13.45;8.77;;;;;;;17.04;38.64;99331.88;10245180;28;20047;-54
2022/03/24 16:51:20;;;;;;;9.93;8.93;;;;;;;16.82;38.93;99330.84;10238737;28;20083;-52
2022/03/24 16:56:25;;;;;;;12.48;8.55;;;;;;;16.36;39.81;99326.97;10238843;28;20086;-53
2022/03/24 17:01:28;;;;;;;10.70;9.18;;;;;;;16.02;40.41;99328.97;10242321;28;20056;-55
2022/03/24 17:06:32;;;;;;;10.80;9.70;;;;;;;15.56;41.12;99329.53;10192380;29;20143;-54
2022/03/24 17:11:37;;;;;;;12.73;10.15;;;;;;;15.21;41.44;99331.56;10217091;29;20035;-57
2022/03/24 17:16:40;;;;;;;12.75;10.60;;;;;;;14.84;41.80;99326.63;10211760;29;20079;-57
2022/03/24 17:21:43;;;;;;;12.98;10.52;;;;;;;14.43;42.24;99330.03;10205533;29;20106;-59
2022/03/24 17:26:48;;;;;;;15.25;10.70;;;;;;;14.20;42.52;99336.03;10223679;29;20057;-53
2022/03/24 17:31:52;;;;;;;13.05;10.55;;;;;;;13.91;43.14;99336.38;10217368;28;20047;-54
2022/03/24 17:36:56;;;;;;;11.38;10.18;;;;;;;13.71;43.75;99337.44;10220931;29;20043;-52
2022/03/24 17:42:00;;;;;;;12.48;10.90;;;;;;;13.45;44.47;99342.84;10219472;29;20074;-53
2022/03/24 17:47:04;;;;;;;13.77;11.10;;;;;;;13.13;44.75;99341.53;10218574;29;20051;-51
2022/03/24 17:52:07;;;;;;;14.13;10.30;;;;;;;12.88;45.27;99343.97;10200431;29;20039;-57
2022/03/24 17:57:12;;;;;;;12.70;10.63;;;;;;;12.73;45.71;99346.38;10221232;29;20051;-54
2022/03/24 18:02:15;;;;;;;14.05;10.32;;;;;;;12.55;45.87;99351.75;10220263;29;20361;-56
2022/03/24 18:07:18;;;;;;;12.00;10.80;;;;;;;12.41;47.16;99355.81;10218982;29;20094;-51
2022/03/24 18:12:23;;;;;;;12.93;10.90;;;;;;;12.14;46.86;99354.78;10219770;29;20471;-53
2022/03/24 18:17:26;;;;;;;12.88;11.18;;;;;;;11.99;47.58;99362.53;10223294;29;20052;-56
2022/03/24 18:22:29;;;;;;;13.93;11.60;;;;;;;11.93;48.32;99359.53;10219412;29;20067;-52
2022/03/24 18:27:34;;;;;;;12.48;10.80;;;;;;;11.76;48.57;99363.84;10218185;29;20094;-54
2022/03/24 18:32:37;;;;;;;16.80;12.40;;;;;;;11.62;48.62;99370.56;10216041;29;20043;-53
2022/03/24 18:37:40;;;;;;;13.07;11.77;;;;;;;11.46;48.93;99369.28;10223311;28;20166;-50
2022/03/24 18:42:45;;;;;;;17.02;12.02;;;;;;;11.23;50.47;99374.16;10225724;29;20035;-50
2022/03/24 18:47:51;;;;;;;14.40;12.32;;;;;;;11.03;50.25;99382.22;10219409;29;20477;-50
2022/03/24 18:52:55;;;;;;;13.88;12.27;;;;;;;10.95;50.55;99380.22;10204565;29;20058;-49
2022/03/24 18:58:00;;;;;;;16.42;12.25;;;;;;;10.88;50.93;99383.59;10225306;28;20047;-56
2022/03/24 19:03:04;;;;;;;14.95;12.63;;;;;;;10.76;51.27;99381.03;10234178;28;20496;-51
2022/03/24 19:08:09;;;;;;;16.60;12.73;;;;;;;10.73;51.42;99383.16;10264059;28;20047;-51
2022/03/24 19:13:15;;;;;;;14.93;12.38;;;;;;;10.71;51.24;99380.59;10256106;28;20161;-52
2022/03/24 19:18:18;;;;;;;13.85;12.27;;;;;;;10.73;50.80;99385.84;10253169;28;20126;-49
2022/03/24 19:23:49;;;;;;;16.17;12.25;;;;;;;10.71;51.38;99386.00;10243983;28;20036;-55
2022/03/24 19:28:57;;;;;;;15.77;12.52;;;;;;;10.68;51.98;99385.44;10239921;28;20541;-50
2022/03/24 19:34:03;;;;;;;14.07;12.52;;;;;;;10.56;52.49;99384.66;10255553;28;20047;-58
2022/03/24 19:39:07;;;;;;;14.05;12.38;;;;;;;10.42;53.27;99392.13;10252571;28;20051;-54
2022/03/24 19:44:11;;;;;;;15.18;12.48;;;;;;;10.22;53.63;99382.25;10252705;28;20038;-53
2022/03/24 19:49:16;;;;;;;19.05;12.77;;;;;;;10.24;53.14;99391.91;10238298;28;20047;-53
2022/03/24 19:54:19;;;;;;;17.35;13.60;;;;;;;10.22;53.49;99395.72;10248818;28;20051;-56
2022/03/24 19:59:24;;;;;;;15.10;12.48;;;;;;;10.18;53.25;99398.69;10257952;28;20531;-52
2022/03/24 20:04:29;;;;;;;16.00;12.77;;;;;;;10.12;53.67;99393.84;10259364;28;20098;-53
2022/03/24 20:09:34;;;;;;;14.27;12.82;;;;;;;10.00;55.68;99403.81;10248381;28;20389;-54
2022/03/24 20:14:38;;;;;;;14.90;12.60;;;;;;;9.86;55.53;99402.34;10255626;28;20104;-53
2022/03/24 20:19:42;;;;;;;15.82;13.32;;;;;;;9.69;57.16;99408.34;10258315;28;20063;-51
2022/03/24 20:24:54;;;;;;;15.00;13.30;;;;;;;9.47;58.63;99407.44;10253725;28;20043;-53
2022/03/24 20:29:58;;;;;;;15.23;13.05;;;;;;;9.31;59.13;99413.28;10239389;28;20055;-50
2022/03/24 20:35:03;;;;;;;15.10;13.10;;;;;;;9.10;61.60;99413.25;10290790;28;20054;-52
2022/03/24 20:40:08;;;;;;;14.95;13.35;;;;;;;8.94;62.61;99414.50;10270544;28;20134;-56
2022/03/24 20:45:15;;;;;;;14.50;12.98;;;;;;;8.82;64.60;99409.31;10269958;28;20044;-53
2022/03/24 20:50:19;;;;;;;16.65;12.65;;;;;;;8.75;64.06;99407.09;10271131;28;20062;-54
2022/03/24 20:55:24;;;;;;;15.65;12.52;;;;;;;8.76;62.75;99411.50;10276200;28;20040;-57
2022/03/24 21:00:29;;;;;;;15.82;12.75;;;;;;;8.79;62.09;99410.38;10276516;28;20078;-57
2022/03/24 21:05:33;;;;;;;14.05;12.55;;;;;;;8.80;61.41;99414.78;10249764;28;20492;-57
2022/03/24 21:10:38;;;;;;;13.60;12.02;;;;;;;8.74;63.77;99412.63;10245558;28;20071;-55
2022/03/24 21:15:43;;;;;;;22.90;13.20;;;;;;;8.60;65.07;99419.94;10251120;28;20043;-56
2022/03/24 21:20:46;;;;;;;14.90;13.45;;;;;;;8.41;67.44;99422.38;10245573;28;20899;-56
2022/03/24 21:25:49;;;;;;;15.23;13.10;;;;;;;8.29;69.30;99425.03;10264479;28;20051;-56
2022/03/24 21:30:54;;;;;;;15.40;13.80;;;;;;;8.14;70.73;99420.91;10265346;28;20055;-56
2022/03/24 21:35:58;;;;;;;14.38;12.85;;;;;;;7.93;74.92;99435.03;10245361;28;20036;-56
2022/03/24 21:41:01;;;;;;;14.70;13.20;;;;;;;7.73;77.00;99433.91;10247778;28;20051;-50
2022/03/24 21:46:06;;;;;;;15.65;14.05;;;;;;;7.62;79.20;99432.03;10253473;28;20074;-58
2022/03/24 21:51:09;;;;;;;15.98;13.40;;;;;;;7.58;79.46;99430.56;10244025;28;20464;-55
2022/03/24 21:56:12;;;;;;;16.77;14.13;;;;;;;7.50;79.42;99436.53;10244906;28;20424;-50
2022/03/24 22:01:17;;;;;;;15.30;13.70;;;;;;;7.37;83.01;99439.25;10242490;28;20539;-54
2022/03/24 22:06:20;;;;;;;16.33;13.88;;;;;;;7.23;84.10;99434.94;10205111;29;20052;-54
2022/03/24 22:11:23;;;;;;;15.30;13.70;;;;;;;7.17;86.09;99431.88;10203664;29;20043;-56
2022/03/24 22:16:28;;;;;;;16.10;14.43;;;;;;;7.04;89.38;99432.78;10204078;29;20040;-56
2022/03/24 22:21:32;;;;;;;18.05;14.90;;;;;;;7.00;90.06;99439.31;10201054;29;20047;-53
2022/03/24 22:26:37;;;;;;;16.60;14.77;;;;;;;6.91;90.28;99438.19;10204664;29;20055;-54
2022/03/24 22:31:41;;;;;;;15.98;14.30;;;;;;;6.83;91.11;99434.34;10201579;29;20043;-51
2022/03/24 22:36:45;;;;;;;17.20;15.40;;;;;;;6.76;93.36;99445.50;10204360;29;20095;-49
2022/03/24 22:41:48;;;;;;;16.10;14.40;;;;;;;6.67;93.11;99445.34;10202550;29;20058;-52
2022/03/24 22:46:52;;;;;;;16.45;14.70;;;;;;;6.56;93.98;99443.41;10184188;29;20119;-56
2022/03/24 22:51:56;;;;;;;18.33;14.93;;;;;;;6.46;95.77;99444.09;10199613;29;20063;-52
2022/03/24 22:56:59;;;;;;;18.48;14.35;;;;;;;6.36;98.02;99440.38;10203543;29;20048;-50
2022/03/24 23:02:03;;;;;;;14.68;13.13;;;;;;;6.34;91.64;99428.91;10214245;28;20419;-52
2022/03/24 23:07:10;;;;;;;17.10;13.35;;;;;;;6.36;90.92;99437.69;10244647;28;20051;-51
2022/03/24 23:12:13;;;;;;;15.07;13.20;;;;;;;6.36;92.19;99436.81;10240609;28;20046;-55
2022/03/24 23:17:19;;;;;;;20.45;14.13;;;;;;;6.36;94.17;99442.16;10244722;28;20090;-53
2022/03/24 23:22:22;;;;;;;16.48;14.77;;;;;;;6.36;94.42;99439.50;10249027;28;20074;-51
2022/03/24 23:27:26;;;;;;;16.25;13.82;;;;;;;6.32;95.90;99449.56;10252080;28;20110;-52
2022/03/24 23:32:30;;;;;;;15.43;13.93;;;;;;;6.28;97.57;99443.56;10258161;28;20047;-56
2022/03/24 23:37:33;;;;;;;19.50;13.95;;;;;;;6.25;96.54;99437.59;10253232;28;20047;-53